createdAt,value
2023-11-10T00:00:22.796Z,7.43
2023-11-10T00:01:22.724Z,7.40
2023-11-10T00:02:22.746Z,7.45
2023-11-10T00:03:23.050Z,7.40
2023-11-10T00:04:22.919Z,7.39
2023-11-10T00:05:23.082Z,7.25
2023-11-10T00:06:22.717Z,7.29
2023-11-10T00:07:22.690Z,7.33
2023-11-10T00:08:22.719Z,7.28
2023-11-10T00:09:22.683Z,7.35
2023-11-10T00:10:22.678Z,7.38
2023-11-10T00:11:22.660Z,7.32
2023-11-10T00:12:22.703Z,7.33
2023-11-10T00:13:22.660Z,7.21
2023-11-10T00:14:30.693Z,7.25
2023-11-10T00:15:23.687Z,7.18
2023-11-10T00:16:22.651Z,7.21
2023-11-10T00:17:22.631Z,7.25
2023-11-10T00:18:22.689Z,7.18
2023-11-10T00:19:22.629Z,7.21
2023-11-10T00:20:22.674Z,7.17
2023-11-10T00:21:22.623Z,7.20
2023-11-10T00:22:22.612Z,7.20
2023-11-10T00:23:22.606Z,7.23
2023-11-10T00:24:22.621Z,7.15
2023-11-10T00:25:22.574Z,7.13
2023-11-10T00:26:22.621Z,7.06
2023-11-10T00:27:22.580Z,7.10
2023-11-10T00:28:22.589Z,7.15
2023-11-10T00:29:22.564Z,7.05
2023-11-10T00:30:22.586Z,6.93
2023-11-10T00:31:22.544Z,6.89
2023-11-10T00:32:22.609Z,6.96
2023-11-10T00:33:22.708Z,6.84
2023-11-10T00:34:22.611Z,6.85
2023-11-10T00:35:22.517Z,6.93
2023-11-10T00:36:22.591Z,6.77
2023-11-10T00:37:22.516Z,6.74
2023-11-10T00:38:22.565Z,6.78
2023-11-10T00:39:22.542Z,6.77
2023-11-10T00:40:22.510Z,6.64
2023-11-10T00:41:22.504Z,6.66
2023-11-10T00:42:22.525Z,6.66
2023-11-10T00:43:22.482Z,6.70
2023-11-10T00:44:22.487Z,6.74
2023-11-10T00:45:22.461Z,6.67
2023-11-10T00:46:22.513Z,6.69
2023-11-10T00:47:22.493Z,6.72
2023-11-10T00:48:22.514Z,6.75
2023-11-10T00:49:22.458Z,6.69
2023-11-10T00:50:22.465Z,6.74
2023-11-10T00:51:22.462Z,6.70
2023-11-10T00:52:22.727Z,6.84
2023-11-10T00:53:22.460Z,6.74
2023-11-10T00:54:22.451Z,6.72
2023-11-10T00:55:22.411Z,6.77
2023-11-10T00:56:22.450Z,6.70
2023-11-10T00:57:22.452Z,6.72
2023-11-10T00:58:22.422Z,6.77
2023-11-10T00:59:22.394Z,6.59
2023-11-10T01:00:22.425Z,6.72
2023-11-10T01:01:22.421Z,6.67
2023-11-10T01:02:22.499Z,6.64
2023-11-10T01:03:22.478Z,6.57
2023-11-10T01:04:22.425Z,6.52
2023-11-10T01:05:22.356Z,6.48
2023-11-10T01:06:22.500Z,6.60
2023-11-10T01:07:22.363Z,6.54
2023-11-10T01:08:22.364Z,6.59
2023-11-10T01:09:22.356Z,6.48
2023-11-10T01:10:22.371Z,6.49
2023-11-10T01:11:22.349Z,6.51
2023-11-10T01:12:22.394Z,6.54
2023-11-10T01:13:22.326Z,6.56
2023-11-10T01:14:22.325Z,6.54
2023-11-10T01:15:22.353Z,6.45
2023-11-10T01:16:22.379Z,6.52
2023-11-10T01:17:22.306Z,6.46
2023-11-10T01:18:22.349Z,6.54
2023-11-10T01:19:22.284Z,6.49
2023-11-10T01:20:22.308Z,6.51
2023-11-10T01:21:22.298Z,6.44
2023-11-10T01:22:22.298Z,6.44
2023-11-10T01:23:22.269Z,6.52
2023-11-10T01:24:22.272Z,6.48
2023-11-10T01:25:22.289Z,6.38
2023-11-10T01:26:22.291Z,6.49
2023-11-10T01:27:22.283Z,6.51
2023-11-10T01:28:22.270Z,6.54
2023-11-10T01:29:22.234Z,6.49
2023-11-10T01:30:22.267Z,6.46
2023-11-10T01:31:22.254Z,6.52
2023-11-10T01:32:22.269Z,6.51
2023-11-10T01:33:22.353Z,6.62
2023-11-10T01:34:22.238Z,6.57
2023-11-10T01:35:22.193Z,6.49
2023-11-10T01:36:22.247Z,6.48
2023-11-10T01:37:22.220Z,6.54
2023-11-10T01:38:22.199Z,6.46
2023-11-10T01:39:22.199Z,6.46
2023-11-10T01:40:22.188Z,6.44
2023-11-10T01:41:22.191Z,6.48
2023-11-10T01:42:22.206Z,6.48
2023-11-10T01:43:22.166Z,6.41
2023-11-10T01:44:22.164Z,6.59
2023-11-10T01:45:22.173Z,6.48
2023-11-10T01:46:22.208Z,6.36
2023-11-10T01:47:22.153Z,6.46
2023-11-10T01:48:22.177Z,6.44
2023-11-10T01:49:22.233Z,6.41
2023-11-10T01:50:22.142Z,6.31
2023-11-10T01:51:22.154Z,6.31
2023-11-10T01:52:22.120Z,6.27
2023-11-10T01:53:22.121Z,6.20
2023-11-10T01:54:22.297Z,6.17
2023-11-10T01:55:22.103Z,6.26
2023-11-10T01:56:22.096Z,6.17
2023-11-10T01:57:22.113Z,6.20
2023-11-10T01:58:22.081Z,6.16
2023-11-10T01:59:22.088Z,6.09
2023-11-10T02:00:22.109Z,6.07
2023-11-10T02:01:22.057Z,6.09
2023-11-10T02:02:22.145Z,6.09
2023-11-10T02:03:22.209Z,6.16
2023-11-10T02:04:22.153Z,6.28
2023-11-10T02:05:22.045Z,6.27
2023-11-10T02:06:22.055Z,6.28
2023-11-10T02:07:22.017Z,6.26
2023-11-10T02:08:22.046Z,6.28
2023-11-10T02:09:22.050Z,6.26
2023-11-10T02:10:22.063Z,6.33
2023-11-10T02:11:22.001Z,6.42
2023-11-10T02:12:22.038Z,6.49
2023-11-10T02:13:22.014Z,6.46
2023-11-10T02:14:22.081Z,6.52
2023-11-10T02:15:22.025Z,6.46
2023-11-10T02:16:22.019Z,6.46
2023-11-10T02:17:21.989Z,6.57
2023-11-10T02:18:21.983Z,6.57
2023-11-10T02:19:21.967Z,6.45
2023-11-10T02:20:21.980Z,6.56
2023-11-10T02:21:21.974Z,6.48
2023-11-10T02:22:21.968Z,6.54
2023-11-10T02:23:21.952Z,6.48
2023-11-10T02:24:21.972Z,6.51
2023-11-10T02:25:21.945Z,6.39
2023-11-10T02:26:21.976Z,6.41
2023-11-10T02:27:21.982Z,6.30
2023-11-10T02:28:21.943Z,6.24
2023-11-10T02:29:21.941Z,6.28
2023-11-10T02:30:21.939Z,6.30
2023-11-10T02:31:21.926Z,6.33
2023-11-10T02:32:21.907Z,6.22
2023-11-10T02:33:21.906Z,6.31
2023-11-10T02:34:21.920Z,6.36
2023-11-10T02:35:21.897Z,6.39
2023-11-10T02:36:21.883Z,6.41
2023-11-10T02:37:21.854Z,6.44
2023-11-10T02:38:21.864Z,6.38
2023-11-10T02:39:21.872Z,6.31
2023-11-10T02:40:21.862Z,6.41
2023-11-10T02:41:21.827Z,6.45
2023-11-10T02:42:21.900Z,6.42
2023-11-10T02:43:21.833Z,6.54
2023-11-10T02:44:21.837Z,6.45
2023-11-10T02:45:21.853Z,6.52
2023-11-10T02:46:21.907Z,6.51
2023-11-10T02:47:21.803Z,6.56
2023-11-10T02:48:21.821Z,6.54
2023-11-10T02:49:21.798Z,6.49
2023-11-10T02:50:22.025Z,6.59
2023-11-10T02:51:21.784Z,6.45
2023-11-10T02:52:21.774Z,6.54
2023-11-10T02:53:21.758Z,6.57
2023-11-10T02:54:21.784Z,6.46
2023-11-10T02:55:21.757Z,6.41
2023-11-10T02:56:21.820Z,6.41
2023-11-10T02:57:21.749Z,6.38
2023-11-10T02:58:21.749Z,6.33
2023-11-10T02:59:21.737Z,6.16
2023-11-10T03:00:21.793Z,6.19
2023-11-10T03:01:21.750Z,6.07
2023-11-10T03:02:21.729Z,6.11
2023-11-10T03:03:21.781Z,6.14
2023-11-10T03:04:21.761Z,6.19
2023-11-10T03:05:21.821Z,6.05
2023-11-10T03:06:21.737Z,5.90
2023-11-10T03:07:21.705Z,5.93
2023-11-10T03:08:21.700Z,5.93
2023-11-10T03:09:21.758Z,5.90
2023-11-10T03:10:21.714Z,5.89
2023-11-10T03:11:21.669Z,5.90
2023-11-10T03:12:21.797Z,6.01
2023-11-10T03:13:21.659Z,5.90
2023-11-10T03:14:21.678Z,5.86
2023-11-10T03:15:21.694Z,5.87
2023-11-10T03:16:21.667Z,5.86
2023-11-10T03:17:21.681Z,5.87
2023-11-10T03:18:21.757Z,5.76
2023-11-10T03:19:21.624Z,5.82
2023-11-10T03:20:21.636Z,5.83
2023-11-10T03:21:21.618Z,5.76
2023-11-10T03:22:21.636Z,5.73
2023-11-10T03:23:21.634Z,5.84
2023-11-10T03:24:21.678Z,5.73
2023-11-10T03:25:21.592Z,5.73
2023-11-10T03:26:21.613Z,5.72
2023-11-10T03:27:21.616Z,5.73
2023-11-10T03:28:21.595Z,5.84
2023-11-10T03:29:21.570Z,5.82
2023-11-10T03:30:21.648Z,5.82
2023-11-10T03:31:21.602Z,5.84
2023-11-10T03:32:21.569Z,5.87
2023-11-10T03:33:21.570Z,5.86
2023-11-10T03:34:21.563Z,5.86
2023-11-10T03:35:21.537Z,5.79
2023-11-10T03:36:21.580Z,5.76
2023-11-10T03:37:21.539Z,5.83
2023-11-10T03:38:21.542Z,5.84
2023-11-10T03:39:21.548Z,5.84
2023-11-10T03:40:21.699Z,5.86
2023-11-10T03:41:21.510Z,5.82
2023-11-10T03:42:21.564Z,5.82
2023-11-10T03:43:21.495Z,5.82
2023-11-10T03:44:21.511Z,5.84
2023-11-10T03:45:21.502Z,5.76
2023-11-10T03:46:21.510Z,5.82
2023-11-10T03:47:21.496Z,5.84
2023-11-10T03:48:21.493Z,5.89
2023-11-10T03:49:21.466Z,5.84
2023-11-10T03:50:21.478Z,5.84
2023-11-10T03:51:21.478Z,5.80
2023-11-10T03:52:21.463Z,5.75
2023-11-10T03:53:21.476Z,5.72
2023-11-10T03:54:21.457Z,5.68
2023-11-10T03:55:21.432Z,5.80
2023-11-10T03:56:21.461Z,5.71
2023-11-10T03:57:21.469Z,5.80
2023-11-10T03:58:21.455Z,5.72
2023-11-10T03:59:21.431Z,5.82
2023-11-10T04:00:21.463Z,5.72
2023-11-10T04:01:21.517Z,5.75
2023-11-10T04:02:21.422Z,5.69
2023-11-10T04:03:21.489Z,5.79
2023-11-10T04:04:21.485Z,5.62
2023-11-10T04:05:21.378Z,5.75
2023-11-10T04:06:31.287Z,5.75
2023-11-10T04:07:22.437Z,5.76
2023-11-10T04:08:21.374Z,5.64
2023-11-10T04:09:21.369Z,5.83
2023-11-10T04:10:21.360Z,5.73
2023-11-10T04:11:21.337Z,5.79
2023-11-10T04:12:21.393Z,5.80
2023-11-10T04:13:21.318Z,5.73
2023-11-10T04:14:21.357Z,5.82
2023-11-10T04:15:21.342Z,5.72
2023-11-10T04:16:21.417Z,5.73
2023-11-10T04:17:21.305Z,5.75
2023-11-10T04:18:21.342Z,5.69
2023-11-10T04:19:21.290Z,5.75
2023-11-10T04:20:21.322Z,5.72
2023-11-10T04:21:21.338Z,5.82
2023-11-10T04:22:21.293Z,5.82
2023-11-10T04:23:21.269Z,5.83
2023-11-10T04:24:21.316Z,5.82
2023-11-10T04:25:21.266Z,5.91
2023-11-10T04:26:21.271Z,5.99
2023-11-10T04:27:21.282Z,5.87
2023-11-10T04:28:21.264Z,5.91
2023-11-10T04:29:21.233Z,5.99
2023-11-10T04:30:21.311Z,6.02
2023-11-10T04:31:21.252Z,5.86
2023-11-10T04:32:21.234Z,5.97
2023-11-10T04:33:21.272Z,5.91
2023-11-10T04:34:21.271Z,6.01
2023-11-10T04:35:21.192Z,6.09
2023-11-10T04:36:21.255Z,6.02
2023-11-10T04:37:21.217Z,6.05
2023-11-10T04:38:21.189Z,6.11
2023-11-10T04:39:21.218Z,6.12
2023-11-10T04:40:21.191Z,6.16
2023-11-10T04:41:21.164Z,6.22
2023-11-10T04:42:21.199Z,6.14
2023-11-10T04:43:21.160Z,6.22
2023-11-10T04:44:21.162Z,6.14
2023-11-10T04:45:21.172Z,6.20
2023-11-10T04:46:21.187Z,6.22
2023-11-10T04:47:21.142Z,6.19
2023-11-10T04:48:21.190Z,6.28
2023-11-10T04:49:21.124Z,6.22
2023-11-10T04:50:21.124Z,6.28
2023-11-10T04:51:21.143Z,6.30
2023-11-10T04:52:21.130Z,6.31
2023-11-10T04:53:21.109Z,6.27
2023-11-10T04:54:21.125Z,6.33
2023-11-10T04:55:21.079Z,6.28
2023-11-10T04:56:21.094Z,6.33
2023-11-10T04:57:21.086Z,6.22
2023-11-10T04:58:21.103Z,6.27
2023-11-10T04:59:21.070Z,6.33
2023-11-10T05:00:21.106Z,6.35
2023-11-10T05:01:21.093Z,6.41
2023-11-10T05:02:21.093Z,6.41
2023-11-10T05:03:21.114Z,6.46
2023-11-10T05:04:21.140Z,6.48
2023-11-10T05:05:21.036Z,6.48
2023-11-10T05:06:21.058Z,6.54
2023-11-10T05:07:21.022Z,6.54
2023-11-10T05:08:21.032Z,6.54
2023-11-10T05:09:21.018Z,6.51
2023-11-10T05:10:21.048Z,6.44
2023-11-10T05:11:20.997Z,6.54
2023-11-10T05:12:21.018Z,6.46
2023-11-10T05:13:20.986Z,6.42
2023-11-10T05:14:20.990Z,6.49
2023-11-10T05:15:20.970Z,6.52
2023-11-10T05:16:21.033Z,6.48
2023-11-10T05:17:20.953Z,6.45
2023-11-10T05:19:20.960Z,6.48
2023-11-10T05:20:20.966Z,6.57
2023-11-10T05:21:20.978Z,6.48
2023-11-10T05:22:20.970Z,6.54
2023-11-10T05:23:20.927Z,6.45
2023-11-10T05:24:20.939Z,6.49
2023-11-10T05:25:20.921Z,6.46
2023-11-10T05:26:20.922Z,6.51
2023-11-10T05:27:20.911Z,6.44
2023-11-10T05:28:20.925Z,6.52
2023-11-10T05:29:20.886Z,6.52
2023-11-10T05:30:21.236Z,6.41
2023-11-10T05:31:20.897Z,6.42
2023-11-10T05:32:20.910Z,6.39
2023-11-10T05:33:20.895Z,6.52
2023-11-10T05:34:20.938Z,6.52
2023-11-10T05:35:20.851Z,6.48
2023-11-10T05:36:20.893Z,6.49
2023-11-10T05:37:20.846Z,6.46
2023-11-10T05:38:20.887Z,6.52
2023-11-10T05:39:20.897Z,6.59
2023-11-10T05:40:20.847Z,6.57
2023-11-10T05:41:20.830Z,6.56
2023-11-10T05:42:20.894Z,6.51
2023-11-10T05:43:20.819Z,6.66
2023-11-10T05:44:20.827Z,6.59
2023-11-10T05:45:20.868Z,6.56
2023-11-10T05:46:20.823Z,6.64
2023-11-10T05:47:20.803Z,6.67
2023-11-10T05:48:20.865Z,6.70
2023-11-10T05:49:20.784Z,6.67
2023-11-10T05:50:20.807Z,6.69
2023-11-10T05:51:20.786Z,6.70
2023-11-10T05:52:20.778Z,6.66
2023-11-10T05:53:20.767Z,6.66
2023-11-10T05:54:20.790Z,6.70
2023-11-10T05:55:20.783Z,6.79
2023-11-10T05:56:23.875Z,6.72
2023-11-10T05:57:20.769Z,6.75
2023-11-10T05:58:20.772Z,6.74
2023-11-10T05:59:20.741Z,6.75
2023-11-10T06:00:20.804Z,6.75
2023-11-10T06:01:20.836Z,6.75
2023-11-10T06:02:20.763Z,6.70
2023-11-10T06:03:20.841Z,6.74
2023-11-10T06:04:28.912Z,6.75
2023-11-10T06:05:21.707Z,6.79
2023-11-10T06:06:20.722Z,6.79
2023-11-10T06:07:20.702Z,6.69
2023-11-10T06:08:20.688Z,6.78
2023-11-10T06:09:20.670Z,6.78
2023-11-10T06:10:20.676Z,6.84
2023-11-10T06:11:20.659Z,6.85
2023-11-10T06:12:20.706Z,6.79
2023-11-10T06:13:20.662Z,6.74
2023-11-10T06:14:20.663Z,6.75
2023-11-10T06:15:21.830Z,6.85
2023-11-10T06:16:20.683Z,6.77
2023-11-10T06:17:20.625Z,6.70
2023-11-10T06:18:20.639Z,6.79
2023-11-10T06:19:20.673Z,6.77
2023-11-10T06:20:20.635Z,6.69
2023-11-10T06:21:20.606Z,6.74
2023-11-10T06:22:20.603Z,6.74
2023-11-10T06:23:20.578Z,6.74
2023-11-10T06:24:20.619Z,6.74
2023-11-10T06:25:20.596Z,6.72
2023-11-10T06:26:20.584Z,6.79
2023-11-10T06:27:20.641Z,6.78
2023-11-10T06:28:20.614Z,6.75
2023-11-10T06:29:20.543Z,6.84
2023-11-10T06:30:20.599Z,6.82
2023-11-10T06:31:20.580Z,6.79
2023-11-10T06:32:20.576Z,6.82
2023-11-10T06:33:20.675Z,6.87
2023-11-10T06:34:20.523Z,6.78
2023-11-10T06:35:20.514Z,6.82
2023-11-10T06:36:20.542Z,6.84
2023-11-10T06:37:20.570Z,6.85
2023-11-10T06:38:20.510Z,6.88
2023-11-10T06:39:20.508Z,6.84
2023-11-10T06:40:20.500Z,6.81
2023-11-10T06:41:20.474Z,6.89
2023-11-10T06:42:20.521Z,6.88
2023-11-10T06:43:20.493Z,6.88
2023-11-10T06:44:20.744Z,6.95
2023-11-10T06:45:20.477Z,6.87
2023-11-10T06:46:20.540Z,6.92
2023-11-10T06:47:20.530Z,6.99
2023-11-10T06:48:20.528Z,6.97
2023-11-10T06:49:20.430Z,6.96
2023-11-10T06:50:20.430Z,6.93
2023-11-10T06:51:20.428Z,7.02
2023-11-10T06:52:20.430Z,6.93
2023-11-10T06:53:20.425Z,6.93
2023-11-10T06:54:20.428Z,6.89
2023-11-10T06:55:20.397Z,6.99
2023-11-10T06:56:20.417Z,6.92
2023-11-10T06:57:20.406Z,7.00
2023-11-10T06:58:20.430Z,6.93
2023-11-10T06:59:20.375Z,7.07
2023-11-10T07:00:20.426Z,6.99
2023-11-10T07:01:20.495Z,6.89
2023-11-10T07:02:20.411Z,7.06
2023-11-10T07:03:20.453Z,6.99
2023-11-10T07:04:20.429Z,6.87
2023-11-10T07:05:20.341Z,6.93
2023-11-10T07:06:20.406Z,7.00
2023-11-10T07:07:20.364Z,7.05
2023-11-10T07:08:20.336Z,7.02
2023-11-10T07:09:20.340Z,6.96
2023-11-10T07:10:20.335Z,7.05
2023-11-10T07:11:20.325Z,6.96
2023-11-10T07:12:20.335Z,7.03
2023-11-10T07:13:20.296Z,7.02
2023-11-10T07:14:20.325Z,6.99
2023-11-10T07:15:20.302Z,7.10
2023-11-10T07:16:20.413Z,6.97
2023-11-10T07:17:20.294Z,7.07
2023-11-10T07:18:20.313Z,7.06
2023-11-10T07:19:20.278Z,7.02
2023-11-10T07:20:20.267Z,7.03
2023-11-10T07:21:20.269Z,7.03
2023-11-10T07:22:20.285Z,6.97
2023-11-10T07:23:20.258Z,6.93
2023-11-10T07:24:20.298Z,6.89
2023-11-10T07:25:20.240Z,6.92
2023-11-10T07:26:20.238Z,6.96
2023-11-10T07:27:20.217Z,7.00
2023-11-10T07:28:20.227Z,6.97
2023-11-10T07:29:20.212Z,6.97
2023-11-10T07:30:20.279Z,6.95
2023-11-10T07:31:20.204Z,6.93
2023-11-10T07:32:20.197Z,7.00
2023-11-10T07:33:20.225Z,7.00
2023-11-10T07:34:20.236Z,6.93
2023-11-10T07:35:20.172Z,6.95
2023-11-10T07:36:20.220Z,7.00
2023-11-10T07:37:20.146Z,7.05
2023-11-10T07:38:20.158Z,7.10
2023-11-10T07:39:20.257Z,7.05
2023-11-10T07:40:20.166Z,7.11
2023-11-10T07:41:20.133Z,7.15
2023-11-10T07:42:20.195Z,7.03
2023-11-10T07:43:20.109Z,7.06
2023-11-10T07:44:20.138Z,7.21
2023-11-10T07:45:20.201Z,7.10
2023-11-10T07:46:20.157Z,7.15
2023-11-10T07:47:20.084Z,7.15
2023-11-10T07:48:20.127Z,7.18
2023-11-10T07:49:20.091Z,7.18
2023-11-10T07:50:20.117Z,7.20
2023-11-10T07:51:20.085Z,7.21
2023-11-10T07:52:20.074Z,7.23
2023-11-10T07:53:20.061Z,7.32
2023-11-10T07:54:20.114Z,7.36
2023-11-10T07:55:20.067Z,7.39
2023-11-10T07:56:20.056Z,7.28
2023-11-10T07:57:20.103Z,7.45
2023-11-10T07:58:20.048Z,7.39
2023-11-10T07:59:20.037Z,7.45
2023-11-10T08:00:20.601Z,7.39
2023-11-10T08:01:20.024Z,7.42
2023-11-10T08:02:20.029Z,7.42
2023-11-10T08:03:20.135Z,7.43
2023-11-10T08:04:20.174Z,7.45
2023-11-10T08:05:20.070Z,7.50
2023-11-10T08:06:20.064Z,7.43
2023-11-10T08:07:19.982Z,7.42
2023-11-10T08:08:20.012Z,7.43
2023-11-10T08:09:19.992Z,7.45
2023-11-10T08:10:20.024Z,7.39
2023-11-10T08:11:19.958Z,7.39
2023-11-10T08:12:19.996Z,7.47
2023-11-10T08:13:19.947Z,7.42
2023-11-10T08:14:19.969Z,7.51
2023-11-10T08:15:19.962Z,7.45
2023-11-10T08:16:20.665Z,7.36
2023-11-10T08:17:19.920Z,7.36
2023-11-10T08:18:19.962Z,7.53
2023-11-10T08:19:19.935Z,7.53
2023-11-10T08:20:19.939Z,7.53
2023-11-10T08:21:19.993Z,7.63
2023-11-10T08:22:19.916Z,7.60
2023-11-10T08:23:19.902Z,7.69
2023-11-10T08:24:19.930Z,7.72
2023-11-10T08:25:19.893Z,7.76
2023-11-10T08:26:19.933Z,7.79
2023-11-10T08:27:19.912Z,7.83
2023-11-10T08:28:19.872Z,7.91
2023-11-10T08:29:19.850Z,7.97
2023-11-10T08:30:19.935Z,7.98
2023-11-10T08:31:19.902Z,8.00
2023-11-10T08:32:19.894Z,7.95
2023-11-10T08:33:19.963Z,8.00
2023-11-10T08:34:19.856Z,8.00
2023-11-10T08:35:19.830Z,7.93
2023-11-10T08:36:19.984Z,7.85
2023-11-10T08:37:19.821Z,7.77
2023-11-10T08:38:19.833Z,7.76
2023-11-10T08:39:19.810Z,7.66
2023-11-10T08:40:19.876Z,7.67
2023-11-10T08:41:19.806Z,7.63
2023-11-10T08:42:19.802Z,7.76
2023-11-10T08:43:19.781Z,7.72
2023-11-10T08:44:19.793Z,7.69
2023-11-10T08:45:19.772Z,7.72
2023-11-10T08:46:19.904Z,7.76
2023-11-10T08:47:19.768Z,7.66
2023-11-10T08:48:19.772Z,7.77
2023-11-10T08:49:19.777Z,7.88
2023-11-10T08:50:19.759Z,7.85
2023-11-10T08:51:19.757Z,7.90
2023-11-10T08:52:19.775Z,8.01
2023-11-10T08:53:19.725Z,8.06
2023-11-10T08:54:19.729Z,8.20
2023-11-10T08:55:19.700Z,8.37
2023-11-10T08:56:19.722Z,8.61
2023-11-10T08:57:19.757Z,8.60
2023-11-10T08:58:19.704Z,8.70
2023-11-10T08:59:19.700Z,8.73
2023-11-10T09:00:19.683Z,8.70
2023-11-10T09:01:19.671Z,8.64
2023-11-10T09:02:19.700Z,8.66
2023-11-10T09:03:19.689Z,8.74
2023-11-10T09:04:24.875Z,8.88
2023-11-10T09:05:20.704Z,8.71
2023-11-10T09:06:19.679Z,8.94
2023-11-10T09:07:19.627Z,9.03
2023-11-10T09:08:19.670Z,9.02
2023-11-10T09:09:19.619Z,9.04
2023-11-10T09:10:19.643Z,9.14
2023-11-10T09:11:19.605Z,9.06
2023-11-10T09:12:19.616Z,9.00
2023-11-10T09:13:19.602Z,8.89
2023-11-10T09:14:20.543Z,8.88
2023-11-10T09:15:20.212Z,8.84
2023-11-10T09:16:21.177Z,8.70
2023-11-10T09:17:19.583Z,8.74
2023-11-10T09:18:19.572Z,8.76
2023-11-10T09:19:19.575Z,8.58
2023-11-10T09:20:19.584Z,8.61
2023-11-10T09:21:20.041Z,8.67
2023-11-10T09:22:19.561Z,8.63
2023-11-10T09:23:19.695Z,8.55
2023-11-10T09:24:19.564Z,8.52
2023-11-10T09:25:19.545Z,8.56
2023-11-10T09:26:19.549Z,8.61
2023-11-10T09:27:19.512Z,8.56
2023-11-10T09:28:20.584Z,8.63
2023-11-10T09:29:19.493Z,8.52
2023-11-10T09:30:19.576Z,8.51
2023-11-10T09:31:19.501Z,8.48
2023-11-10T09:32:19.537Z,8.44
2023-11-10T09:33:20.128Z,8.42
2023-11-10T09:34:19.552Z,8.52
2023-11-10T09:35:19.763Z,8.49
2023-11-10T09:36:19.510Z,8.55
2023-11-10T09:37:19.443Z,8.51
2023-11-10T09:38:19.535Z,8.46
2023-11-10T09:39:20.107Z,8.36
2023-11-10T09:40:19.458Z,8.33
2023-11-10T09:41:19.556Z,8.42
2023-11-10T09:42:19.525Z,8.52
2023-11-10T09:43:20.122Z,8.52
2023-11-10T09:44:19.509Z,8.44
2023-11-10T09:45:21.783Z,8.45
2023-11-10T09:46:19.546Z,8.33
2023-11-10T09:47:19.405Z,8.27
2023-11-10T09:48:19.431Z,8.30
2023-11-10T09:49:19.380Z,8.46
2023-11-10T09:50:19.494Z,8.46
2023-11-10T09:51:19.387Z,8.44
2023-11-10T09:52:19.387Z,8.41
2023-11-10T09:53:19.385Z,8.30
2023-11-10T09:54:19.376Z,8.31
2023-11-10T09:55:19.374Z,8.33
2023-11-10T09:56:19.360Z,8.49
2023-11-10T09:57:20.661Z,8.64
2023-11-10T09:58:19.357Z,8.74
2023-11-10T09:59:19.318Z,8.97
2023-11-10T10:00:19.352Z,9.14
2023-11-10T10:01:20.124Z,9.29
2023-11-10T10:02:19.338Z,9.40
2023-11-10T10:03:19.371Z,9.46
2023-11-10T10:04:19.373Z,9.50
2023-11-10T10:05:19.317Z,9.40
2023-11-10T10:06:19.329Z,9.51
2023-11-10T10:07:19.277Z,9.73
2023-11-10T10:08:19.306Z,9.74
2023-11-10T10:09:19.272Z,9.62
2023-11-10T10:10:19.302Z,9.55
2023-11-10T10:11:19.263Z,9.32
2023-11-10T10:12:19.279Z,9.32
2023-11-10T10:13:19.245Z,9.26
2023-11-10T10:14:19.255Z,9.26
2023-11-10T10:15:21.275Z,9.34
2023-11-10T10:16:19.282Z,9.54
2023-11-10T10:17:19.229Z,9.43
2023-11-10T10:18:19.226Z,9.61
2023-11-10T10:19:19.214Z,9.69
2023-11-10T10:20:19.221Z,9.74
2023-11-10T10:21:19.192Z,9.74
2023-11-10T10:22:19.292Z,9.69
2023-11-10T10:23:19.181Z,9.69
2023-11-10T10:24:19.198Z,9.66
2023-11-10T10:25:19.161Z,9.65
2023-11-10T10:26:19.191Z,9.73
2023-11-10T10:27:20.900Z,9.82
2023-11-10T10:28:19.162Z,9.84
2023-11-10T10:29:19.136Z,9.80
2023-11-10T10:30:19.165Z,9.80
2023-11-10T10:31:19.297Z,9.83
2023-11-10T10:32:19.163Z,9.73
2023-11-10T10:33:19.180Z,9.83
2023-11-10T10:34:19.243Z,9.62
2023-11-10T10:35:19.099Z,9.66
2023-11-10T10:36:19.127Z,9.79
2023-11-10T10:37:19.113Z,9.66
2023-11-10T10:38:19.102Z,9.65
2023-11-10T10:39:20.273Z,9.59
2023-11-10T10:40:19.103Z,9.59
2023-11-10T10:41:19.070Z,9.55
2023-11-10T10:42:19.128Z,9.55
2023-11-10T10:43:19.070Z,9.50
2023-11-10T10:44:19.065Z,9.48
2023-11-10T10:45:20.229Z,9.54
2023-11-10T10:46:19.164Z,9.69
2023-11-10T10:47:19.036Z,9.69
2023-11-10T10:48:19.066Z,9.64
2023-11-10T10:49:19.047Z,9.68
2023-11-10T10:50:19.078Z,9.50
2023-11-10T10:51:20.437Z,9.43
2023-11-10T10:52:19.033Z,9.55
2023-11-10T10:53:19.008Z,9.50
2023-11-10T10:54:19.036Z,9.64
2023-11-10T10:55:19.073Z,9.58
2023-11-10T10:56:27.734Z,9.61
2023-11-10T10:57:21.479Z,9.65
2023-11-10T10:58:18.989Z,9.58
2023-11-10T10:59:18.988Z,9.66
2023-11-10T11:00:18.992Z,9.64
2023-11-10T11:01:19.012Z,9.55
2023-11-10T11:02:18.965Z,9.55
2023-11-10T11:03:20.382Z,9.48
2023-11-10T11:04:19.014Z,9.50
2023-11-10T11:05:18.952Z,9.61
2023-11-10T11:06:18.959Z,9.46
2023-11-10T11:07:18.937Z,9.51
2023-11-10T11:08:18.967Z,9.46
2023-11-10T11:09:20.381Z,9.39
2023-11-10T11:10:18.959Z,9.34
2023-11-10T11:11:18.893Z,9.40
2023-11-10T11:12:18.909Z,9.55
2023-11-10T11:13:19.009Z,9.58
2023-11-10T11:14:18.888Z,9.69
2023-11-10T11:15:18.883Z,9.62
2023-11-10T11:16:18.906Z,9.62
2023-11-10T11:17:18.856Z,9.54
2023-11-10T11:18:18.930Z,9.47
2023-11-10T11:19:18.838Z,9.41
2023-11-10T11:20:18.857Z,9.32
2023-11-10T11:21:19.441Z,9.39
2023-11-10T11:22:18.867Z,9.31
2023-11-10T11:23:18.823Z,9.28
2023-11-10T11:24:18.837Z,9.16
2023-11-10T11:25:18.805Z,9.25
2023-11-10T11:26:18.869Z,9.21
2023-11-10T11:27:20.320Z,9.21
2023-11-10T11:28:18.799Z,9.21
2023-11-10T11:29:18.777Z,9.21
2023-11-10T11:30:18.801Z,9.32
2023-11-10T11:31:18.861Z,9.32
2023-11-10T11:32:18.787Z,9.41
2023-11-10T11:33:18.781Z,9.34
2023-11-10T11:34:18.770Z,9.43
2023-11-10T11:35:18.759Z,9.55
2023-11-10T11:36:18.766Z,9.84
2023-11-10T11:37:18.829Z,9.92
2023-11-10T11:38:18.738Z,10.16
2023-11-10T11:39:18.732Z,10.28
2023-11-10T11:40:18.769Z,10.46
2023-11-10T11:41:18.721Z,10.63
2023-11-10T11:42:18.744Z,10.78
2023-11-10T11:43:18.699Z,10.74
2023-11-10T11:44:18.722Z,10.53
2023-11-10T11:45:18.703Z,10.57
2023-11-10T11:46:18.763Z,10.59
2023-11-10T11:47:18.685Z,10.28
2023-11-10T11:48:18.691Z,10.25
2023-11-10T11:49:18.669Z,10.33
2023-11-10T11:50:18.710Z,10.35
2023-11-10T11:51:18.649Z,10.53
2023-11-10T11:52:20.109Z,10.37
2023-11-10T11:53:18.658Z,10.26
2023-11-10T11:54:18.652Z,10.30
2023-11-10T11:55:18.659Z,10.17
2023-11-10T11:56:18.670Z,10.13
2023-11-10T11:57:18.622Z,10.16
2023-11-10T11:58:18.626Z,10.05
2023-11-10T11:59:18.655Z,9.83
2023-11-10T12:00:18.616Z,9.77
2023-11-10T12:01:18.643Z,9.80
2023-11-10T12:02:18.642Z,9.84
2023-11-10T12:03:18.655Z,9.95
2023-11-10T12:04:18.635Z,9.97
2023-11-10T12:05:18.584Z,9.87
2023-11-10T12:06:18.578Z,9.91
2023-11-10T12:07:18.589Z,9.98
2023-11-10T12:08:18.581Z,9.98
2023-11-10T12:09:18.540Z,9.87
2023-11-10T12:10:18.573Z,9.95
2023-11-10T12:11:18.531Z,10.04
2023-11-10T12:12:18.565Z,9.99
2023-11-10T12:13:18.518Z,9.98
2023-11-10T12:14:18.597Z,9.92
2023-11-10T12:15:18.501Z,9.91
2023-11-10T12:16:23.394Z,9.89
2023-11-10T12:17:19.586Z,9.95
2023-11-10T12:18:19.178Z,9.84
2023-11-10T12:19:19.642Z,9.84
2023-11-10T12:20:18.542Z,9.98
2023-11-10T12:21:18.521Z,9.86
2023-11-10T12:22:18.480Z,9.82
2023-11-10T12:23:18.596Z,9.86
2023-11-10T12:24:18.460Z,9.87
2023-11-10T12:25:18.513Z,9.82
2023-11-10T12:26:18.471Z,9.83
2023-11-10T12:27:18.456Z,9.65
2023-11-10T12:28:18.460Z,9.79
2023-11-10T12:29:18.431Z,9.77
2023-11-10T12:30:18.457Z,9.69
2023-11-10T12:31:18.407Z,9.65
2023-11-10T12:32:18.449Z,9.80
2023-11-10T12:33:18.402Z,9.68
2023-11-10T12:34:18.555Z,9.68
2023-11-10T12:35:18.393Z,9.61
2023-11-10T12:36:18.420Z,9.66
2023-11-10T12:37:18.405Z,9.69
2023-11-10T12:38:18.391Z,9.76
2023-11-10T12:39:18.445Z,9.94
2023-11-10T12:40:18.427Z,9.86
2023-11-10T12:41:18.370Z,9.94
2023-11-10T12:42:18.365Z,9.87
2023-11-10T12:43:18.388Z,9.80
2023-11-10T12:44:18.531Z,9.86
2023-11-10T12:45:18.372Z,9.86
2023-11-10T12:46:18.412Z,9.91
2023-11-10T12:47:18.327Z,9.89
2023-11-10T12:48:18.391Z,9.77
2023-11-10T12:49:18.332Z,9.62
2023-11-10T12:50:18.342Z,9.54
2023-11-10T12:51:18.332Z,9.54
2023-11-10T12:52:18.391Z,9.47
2023-11-10T12:53:18.319Z,9.54
2023-11-10T12:54:18.333Z,9.56
2023-11-10T12:55:18.345Z,9.54
2023-11-10T12:56:18.300Z,9.43
2023-11-10T12:57:18.330Z,9.47
2023-11-10T12:58:18.302Z,9.41
2023-11-10T12:59:18.279Z,9.39
2023-11-10T13:00:18.328Z,9.46
2023-11-10T13:01:18.291Z,9.39
2023-11-10T13:02:18.258Z,9.26
2023-11-10T13:03:18.366Z,9.31
2023-11-10T13:04:18.269Z,9.21
2023-11-10T13:05:18.224Z,9.22
2023-11-10T13:06:18.227Z,9.23
2023-11-10T13:07:18.220Z,9.18
2023-11-10T13:08:18.217Z,9.34
2023-11-10T13:09:18.204Z,9.31
2023-11-10T13:10:18.205Z,9.23
2023-11-10T13:11:18.219Z,9.10
2023-11-10T13:12:18.201Z,9.16
2023-11-10T13:13:18.173Z,9.04
2023-11-10T13:14:18.197Z,9.03
2023-11-10T13:15:18.153Z,8.97
2023-11-10T13:16:18.237Z,8.87
2023-11-10T13:17:18.166Z,8.85
2023-11-10T13:18:18.159Z,8.94